Time;durP1;ratioP1;P1;durP2;ratioP2;P2;SDS_P1;SDS_P2;PMS_P1;PMS_P2;Temp;Humidity;BMP_temperature;BMP_pressure;BME280_temperature;BME280_humidity;BME280_pressure;Samples;Min_cycle;Max_cycle;Signal;HPM_P1;HPM_P2
2021/09/21 00:01:04;;;;;;;;;29.33;26.67;;;;;18.06;64.95;102195.97;5000399;28;45707;-76
2021/09/21 00:03:30;;;;;;;;;30.00;26.67;;;;;18.09;64.70;102213.78;5005983;28;45574;-76
2021/09/21 00:05:56;;;;;;;;;31.33;26.00;;;;;18.06;64.54;102215.59;5015973;28;46637;-76
2021/09/21 00:08:21;;;;;;;;;31.33;27.67;;;;;18.02;64.95;102221.81;5016958;28;45317;-76
2021/09/21 00:10:47;;;;;;;;;31.67;27.67;;;;;17.97;64.93;102222.69;5005566;28;56323;-76
2021/09/21 00:13:12;;;;;;;;;32.00;28.33;;;;;17.96;64.67;102232.47;5001178;28;53010;-76
2021/09/21 00:15:37;;;;;;;;;29.67;25.67;;;;;17.89;64.17;102227.09;5005470;28;55862;-76
2021/09/21 00:18:03;;;;;;;;;30.00;26.33;;;;;17.91;64.29;102236.03;5017557;28;45435;-76
2021/09/21 00:20:28;;;;;;;;;36.33;27.67;;;;;17.86;64.31;102235.13;4997235;28;45261;-77
2021/09/21 00:22:54;;;;;;;;;27.00;27.00;;;;;17.85;64.33;102242.25;5014417;28;53945;-77
2021/09/21 00:25:19;;;;;;;;;26.67;23.00;;;;;17.83;64.06;102249.34;5009862;28;58649;-75
2021/09/21 00:27:45;;;;;;;;;33.33;25.33;;;;;17.80;63.92;102234.22;5011792;28;45417;-76
2021/09/21 00:30:11;;;;;;;;;27.67;24.67;;;;;17.75;63.39;102227.06;5017828;28;45443;-76
2021/09/21 00:32:36;;;;;;;;;27.33;22.67;;;;;17.71;63.80;102226.13;5016947;28;45637;-75
2021/09/21 00:35:02;;;;;;;;;31.67;24.33;;;;;17.73;63.63;102239.50;5018127;28;47323;-75
2021/09/21 00:37:27;;;;;;;;;34.33;27.67;;;;;17.70;63.82;102229.69;5005947;28;45392;-76
2021/09/21 00:39:53;;;;;;;;;35.33;25.00;;;;;17.69;63.85;102235.03;4998899;28;45238;-76
2021/09/21 00:42:28;;;;;;;;;26.33;25.00;;;;;17.67;63.40;102240.34;5010419;28;48404;-75
2021/09/21 00:44:58;;;;;;;;;30.67;27.67;;;;;17.64;63.88;102240.34;5013285;28;47780;-76
2021/09/21 00:47:23;;;;;;;;;31.67;26.33;;;;;17.61;63.37;102240.31;4999419;28;45391;-76
2021/09/21 00:49:49;;;;;;;;;26.00;24.00;;;;;17.60;63.62;102238.53;4999030;28;45286;-76
2021/09/21 00:52:14;;;;;;;;;32.67;28.00;;;;;17.59;63.32;102238.53;5008291;28;45509;-75
2021/09/21 00:54:40;;;;;;;;;24.00;22.00;;;;;17.52;63.36;102225.16;4981235;28;49446;-74
2021/09/21 00:57:05;;;;;;;;;30.33;26.33;;;;;17.54;63.15;102227.84;4998824;28;54229;-77
2021/09/21 00:59:30;;;;;;;;;27.00;25.33;;;;;17.50;63.17;102234.94;4998158;28;45728;-75
2021/09/21 01:01:56;;;;;;;;;27.00;24.67;;;;;17.48;63.21;102246.50;5003620;28;52592;-76
2021/09/21 01:04:21;;;;;;;;;27.00;24.67;;;;;17.48;63.34;102250.06;5014527;28;59080;-75
2021/09/21 01:06:47;;;;;;;;;33.00;25.67;;;;;17.48;63.49;102257.19;5009906;28;59291;-75
2021/09/21 01:09:19;;;;;;;;;33.00;29.33;;;;;17.47;63.28;102252.69;5010209;28;45401;-77
2021/09/21 01:11:51;;;;;;;;;30.67;25.33;;;;;17.40;63.44;102242.88;5014624;28;45550;-76
2021/09/21 01:14:17;;;;;;;;;28.67;25.67;;;;;17.42;63.18;102252.72;5009536;28;47845;-76
2021/09/21 01:16:42;;;;;;;;;32.00;28.33;;;;;17.41;63.30;102247.34;5005556;28;57125;-75
2021/09/21 01:19:11;;;;;;;;;28.67;26.67;;;;;17.40;63.27;102248.22;5007271;28;45432;-75
2021/09/21 01:21:37;;;;;;;;;30.33;25.00;;;;;17.35;62.99;102250.88;5004693;28;45381;-76
2021/09/21 01:24:03;;;;;;;;;30.00;26.00;;;;;17.36;63.15;102257.97;5008335;28;45456;-75
2021/09/21 01:26:28;;;;;;;;;27.00;24.33;;;;;17.35;63.07;102253.53;5002006;28;45269;-76
2021/09/21 01:28:54;;;;;;;;;33.33;29.33;;;;;17.33;63.18;102249.09;5004115;28;54880;-75
2021/09/21 01:31:19;;;;;;;;;32.00;28.33;;;;;17.31;63.13;102261.50;5016306;28;52066;-76
2021/09/21 01:33:46;;;;;;;;;37.00;28.67;;;;;17.23;62.96;102254.34;5016835;28;47235;-77
2021/09/21 01:36:16;;;;;;;;;30.67;29.33;;;;;17.23;63.28;102254.34;5024664;28;45332;-76
2021/09/21 01:38:41;;;;;;;;;27.67;26.33;;;;;17.20;63.04;102259.66;5013100;28;45393;-76
2021/09/21 01:41:07;;;;;;;;;32.00;29.00;;;;;17.18;63.23;102265.91;5013207;28;45418;-76
2021/09/21 01:43:32;;;;;;;;;28.00;25.67;;;;;17.15;63.43;102260.53;5011021;28;57301;-76
2021/09/21 01:45:57;;;;;;;;;36.00;28.33;;;;;17.14;63.44;102266.75;5008090;28;45240;-75
2021/09/21 01:48:23;;;;;;;;;31.00;29.33;;;;;17.08;63.50;102269.38;5016023;28;52107;-75
2021/09/21 01:50:59;;;;;;;;;44.33;33.00;;;;;17.10;63.05;102267.59;5012862;28;45627;-76
2021/09/21 01:58:53;;;;;;;;;36.67;27.67;;;;;17.06;63.76;102280.06;4981208;28;45289;-75
2021/09/21 02:01:23;;;;;;;;;32.33;31.33;;;;;17.07;63.21;102275.59;5006537;28;45236;-75
2021/09/21 02:03:49;;;;;;;;;30.33;28.00;;;;;17.12;63.54;102280.09;5006635;28;46853;-76
2021/09/21 02:06:14;;;;;;;;;35.33;31.00;;;;;17.17;63.27;102277.47;5000599;28;45413;-76
2021/09/21 02:08:40;;;;;;;;;35.67;31.67;;;;;17.18;63.40;102282.78;5011332;28;45439;-75
2021/09/21 02:11:05;;;;;;;;;43.00;34.00;;;;;17.21;63.13;102295.28;5016370;28;45535;-77
2021/09/21 02:13:31;;;;;;;;;42.67;33.33;;;;;17.22;63.50;102289.06;5011184;28;45829;-75
2021/09/21 02:15:56;;;;;;;;;38.33;31.67;;;;;17.19;63.20;102279.25;5010025;28;45451;-76
2021/09/21 02:18:22;;;;;;;;;46.00;33.00;;;;;17.26;63.44;102296.22;5008478;28;45230;-75
2021/09/21 02:20:47;;;;;;;;;31.67;28.67;;;;;17.23;63.34;102282.84;5007936;28;45353;-75
2021/09/21 02:23:12;;;;;;;;;33.00;31.00;;;;;17.27;62.85;102290.00;5016667;28;61486;-76
2021/09/21 02:25:38;;;;;;;;;40.33;32.67;;;;;17.27;63.15;102285.53;5010662;28;54998;-75
2021/09/21 02:28:03;;;;;;;;;42.67;34.33;;;;;17.26;63.01;102290.88;5014484;28;55917;-75
2021/09/21 02:30:29;;;;;;;;;36.00;33.00;;;;;17.24;62.70;102301.53;5002847;28;45392;-74
2021/09/21 02:32:54;;;;;;;;;44.00;32.67;;;;;17.20;63.15;102301.47;5014448;28;47335;-75
2021/09/21 02:35:20;;;;;;;;;38.67;33.00;;;;;17.19;63.04;102305.03;5025202;28;55159;-75
2021/09/21 02:37:46;;;;;;;;;38.67;32.00;;;;;17.15;63.10;102306.81;5019386;28;45337;-75
2021/09/21 02:40:12;;;;;;;;;37.00;32.67;;;;;17.07;63.46;102294.28;5006507;28;47608;-75
2021/09/21 02:42:37;;;;;;;;;41.33;34.33;;;;;17.05;63.51;102299.63;5003147;28;46835;-75
2021/09/21 02:45:04;;;;;;;;;40.00;33.67;;;;;17.00;63.44;102298.69;5003887;28;45241;-75
2021/09/21 02:47:29;;;;;;;;;39.00;32.00;;;;;16.95;63.42;102290.66;5000870;28;45361;-76
2021/09/21 02:49:55;;;;;;;;;42.67;35.00;;;;;16.91;63.46;102290.59;5002789;28;51315;-77
2021/09/21 02:52:20;;;;;;;;;41.00;35.00;;;;;16.85;63.61;102288.78;5016722;28;55695;-75
2021/09/21 02:54:45;;;;;;;;;41.25;35.00;;;;;16.80;63.53;102287.84;5012690;28;57176;-76
2021/09/21 02:57:11;;;;;;;;;43.00;35.33;;;;;16.76;63.65;102292.25;5015486;28;45523;-75
2021/09/21 02:59:36;;;;;;;;;41.25;33.50;;;;;16.74;63.35;102293.13;5011222;28;45397;-77
2021/09/21 03:02:02;;;;;;;;;46.00;36.67;;;;;16.74;63.82;102298.47;5015584;28;58920;-75
2021/09/21 03:04:34;;;;;;;;;41.67;36.33;;;;;16.74;63.59;102294.03;5001732;28;45347;-75
2021/09/21 03:07:09;;;;;;;;;38.67;33.00;;;;;16.77;63.57;102312.69;5002077;28;45329;-75
2021/09/21 03:10:08;;;;;;;;;45.67;35.33;;;;;16.79;63.53;102306.50;5007238;28;45477;-75
2021/09/21 03:12:41;;;;;;;;;40.33;33.67;;;;;16.82;64.06;102314.53;5017245;28;47080;-75
2021/09/21 03:17:51;;;;;;;;;40.00;34.50;;;;;16.82;63.60;102306.53;5016023;28;45381;-76
2021/09/21 03:20:17;;;;;;;;;46.67;36.33;;;;;16.90;63.67;102320.84;5010378;28;45483;-76
2021/09/21 03:22:42;;;;;;;;;49.50;36.75;;;;;16.92;63.92;102316.41;5018399;28;56318;-75
2021/09/21 03:25:11;;;;;;;;;47.50;37.75;;;;;16.94;63.34;102320.00;5015683;28;58364;-76
2021/09/21 03:27:37;;;;;;;;;35.75;33.25;;;;;16.91;63.86;102317.28;5012776;28;45416;-75
2021/09/21 03:30:03;;;;;;;;;45.75;37.00;;;;;16.92;63.78;102319.94;5009949;28;45550;-75
2021/09/21 03:32:28;;;;;;;;;42.50;36.50;;;;;16.93;63.51;102320.84;5007536;28;46531;-75
2021/09/21 03:34:54;;;;;;;;;48.50;36.00;;;;;16.96;63.46;102326.22;5017547;28;60458;-75
2021/09/21 03:37:19;;;;;;;;;41.25;33.25;;;;;16.96;63.37;102319.09;5009830;28;45399;-75
2021/09/21 03:39:44;;;;;;;;;44.00;35.75;;;;;17.00;63.29;102320.03;5005438;28;45503;-75
2021/09/21 03:42:10;;;;;;;;;42.50;36.00;;;;;17.00;63.12;102323.59;5001832;28;46244;-76
2021/09/21 03:44:35;;;;;;;;;42.25;34.75;;;;;17.00;63.54;102320.94;4984305;28;45383;-75
2021/09/21 03:47:01;;;;;;;;;41.33;35.00;;;;;16.99;63.03;102319.16;4999605;28;45357;-75
2021/09/21 03:49:26;;;;;;;;;48.00;40.75;;;;;16.98;63.13;102319.09;5001307;28;45351;-76
2021/09/21 03:51:52;;;;;;;;;45.75;39.00;;;;;16.99;62.90;102320.88;5017106;28;62040;-75
2021/09/21 03:54:17;;;;;;;;;49.50;38.25;;;;;16.94;63.02;102309.31;5009465;28;45322;-76
2021/09/21 03:56:42;;;;;;;;;44.00;37.00;;;;;17.00;63.17;102325.38;5007464;28;53835;-76
2021/09/21 03:59:08;;;;;;;;;46.75;36.75;;;;;16.99;62.89;102327.16;5000960;28;45603;-76
2021/09/21 04:01:33;;;;;;;;;45.50;36.75;;;;;16.99;62.93;102328.91;5000205;28;46343;-76
2021/09/21 04:03:59;;;;;;;;;43.00;36.50;;;;;16.95;62.70;102330.66;5004527;28;58042;-75
2021/09/21 04:06:24;;;;;;;;;50.25;38.75;;;;;16.89;62.75;102332.41;5017671;28;45499;-76
2021/09/21 04:08:52;;;;;;;;;47.50;36.75;;;;;16.83;63.03;102334.97;5016210;28;48929;-75
2021/09/21 04:11:17;;;;;;;;;46.00;37.00;;;;;16.79;62.89;102338.53;5017756;28;47711;-76
2021/09/21 04:13:43;;;;;;;;;47.00;36.75;;;;;16.73;63.03;102339.34;5014433;28;55510;-76
2021/09/21 04:16:08;;;;;;;;;51.00;38.75;;;;;16.71;63.01;102344.66;5000048;28;45810;-75
2021/09/21 04:18:33;;;;;;;;;50.00;39.00;;;;;16.65;63.06;102351.69;4998752;28;50812;-75
2021/09/21 04:20:59;;;;;;;;;47.50;37.25;;;;;16.62;63.16;102356.97;5005355;28;57842;-76
2021/09/21 04:23:24;;;;;;;;;51.75;38.50;;;;;16.59;63.18;102351.63;5014042;28;45420;-76
2021/09/21 04:25:50;;;;;;;;;47.00;38.75;;;;;16.55;63.42;102361.34;5013329;28;52923;-76
2021/09/21 04:28:15;;;;;;;;;43.25;35.25;;;;;16.52;63.30;102361.34;4999073;28;51113;-76
2021/09/21 04:30:43;;;;;;;;;45.25;37.00;;;;;16.48;63.33;102364.84;5000020;28;47242;-76
2021/09/21 04:33:08;;;;;;;;;44.00;35.00;;;;;16.45;63.45;102368.34;5016930;28;45409;-76
2021/09/21 04:35:33;;;;;;;;;53.00;40.50;;;;;16.43;63.68;102377.22;5024588;28;45670;-78
2021/09/21 04:37:59;;;;;;;;;47.50;39.25;;;;;16.39;63.58;102368.28;5011316;28;45480;-75
2021/09/21 04:40:24;;;;;;;;;47.00;37.75;;;;;16.37;63.54;102370.03;5013189;28;58194;-74
2021/09/21 04:42:50;;;;;;;;;48.50;39.50;;;;;16.35;63.80;102376.22;5016029;28;56429;-75
2021/09/21 04:45:15;;;;;;;;;48.50;39.75;;;;;16.31;63.71;102374.41;5015823;28;45833;-75
2021/09/21 04:47:40;;;;;;;;;46.00;37.25;;;;;16.26;63.49;102377.03;5016573;28;51489;-74
2021/09/21 04:50:06;;;;;;;;;49.25;39.25;;;;;16.22;63.44;102370.75;5007776;28;47274;-72
2021/09/21 04:52:32;;;;;;;;;50.50;40.50;;;;;16.14;63.53;102377.78;5000213;28;45881;-72
2021/09/21 04:54:57;;;;;;;;;44.25;37.00;;;;;16.02;63.49;102374.91;5001529;28;45515;-73
2021/09/21 04:57:22;;;;;;;;;53.25;40.75;;;;;15.81;63.90;102363.97;5003698;28;45674;-73
2021/09/21 04:59:48;;;;;;;;;53.25;42.00;;;;;15.70;64.39;102374.47;5016061;28;56657;-72
2021/09/21 05:02:13;;;;;;;;;53.00;38.75;;;;;15.56;64.59;102370.69;5006717;28;45338;-73
2021/09/21 05:04:39;;;;;;;;;44.50;37.25;;;;;15.39;65.08;102371.34;5005536;28;54824;-72
2021/09/21 05:07:04;;;;;;;;;48.50;39.00;;;;;15.26;64.88;102373.75;5002636;28;48591;-72
2021/09/21 05:09:29;;;;;;;;;44.75;35.50;;;;;15.13;65.24;102372.69;5002998;28;59285;-72
2021/09/21 05:11:55;;;;;;;;;49.25;38.00;;;;;15.03;65.50;102378.72;5002473;28;56697;-72
2021/09/21 05:14:20;;;;;;;;;46.75;38.00;;;;;14.94;65.71;102371.44;5010195;28;55943;-73
2021/09/21 05:16:46;;;;;;;;;51.50;39.25;;;;;14.87;65.47;102383.75;5006652;28;48313;-74
2021/09/21 05:19:11;;;;;;;;;51.25;40.50;;;;;14.78;65.74;102378.25;5009029;28;47363;-74
2021/09/21 05:21:37;;;;;;;;;40.75;36.50;;;;;14.70;65.68;102389.59;5004362;28;45878;-74
2021/09/21 05:24:04;;;;;;;;;49.75;39.50;;;;;14.64;66.12;102393.03;5007627;28;45511;-75
2021/09/21 05:26:29;;;;;;;;;47.00;37.25;;;;;14.58;66.61;102401.78;5006154;28;45626;-74
2021/09/21 05:28:55;;;;;;;;;48.50;36.50;;;;;14.53;66.44;102403.47;5006112;28;49925;-74
2021/09/21 05:31:20;;;;;;;;;49.00;39.25;;;;;14.45;65.87;102396.19;5013109;28;52819;-74
2021/09/21 05:33:46;;;;;;;;;43.75;35.50;;;;;14.42;66.44;102411.19;5013350;28;45435;-74
2021/09/21 05:36:14;;;;;;;;;48.00;35.50;;;;;14.40;65.97;102417.34;5013508;28;49317;-74
2021/09/21 05:38:39;;;;;;;;;46.50;35.25;;;;;14.38;65.94;102419.06;5001002;28;47284;-75
2021/09/21 05:41:05;;;;;;;;;39.00;35.00;;;;;14.36;66.81;102420.81;4999510;28;57640;-75
2021/09/21 05:43:30;;;;;;;;;47.00;39.00;;;;;14.23;66.28;102403.72;5006589;28;45367;-74
2021/09/21 05:45:56;;;;;;;;;45.25;36.75;;;;;14.30;66.44;102426.00;5013730;28;45526;-74
2021/09/21 05:48:21;;;;;;;;;44.25;35.50;;;;;14.28;66.37;102428.63;5012014;28;47624;-74
2021/09/21 05:50:46;;;;;;;;;36.25;33.00;;;;;14.23;67.18;102426.75;5008956;28;45480;-74
2021/09/21 05:53:12;;;;;;;;;43.50;34.75;;;;;14.24;66.72;102439.16;5010722;28;58415;-74
2021/09/21 05:55:37;;;;;;;;;50.25;36.50;;;;;14.22;66.64;102438.19;5009144;28;52416;-74
2021/09/21 05:58:03;;;;;;;;;44.75;35.00;;;;;14.21;66.47;102429.34;5012861;28;47436;-77
2021/09/21 06:00:28;;;;;;;;;44.75;38.75;;;;;14.32;65.98;102434.88;5001502;28;54495;-76
2021/09/21 06:02:53;;;;;;;;;45.25;34.75;;;;;14.40;65.79;102435.94;5004457;28;55112;-76
2021/09/21 06:05:19;;;;;;;;;41.75;34.00;;;;;14.51;65.97;102446.84;5012107;28;45554;-77
2021/09/21 06:07:45;;;;;;;;;43.25;33.00;;;;;14.60;65.89;102442.63;5004132;28;52530;-76
2021/09/21 06:10:10;;;;;;;;;43.33;30.00;;;;;14.68;65.22;102438.34;5000646;28;45567;-75
2021/09/21 06:12:35;;;;;;;;;35.25;32.50;;;;;14.76;64.90;102451.78;4996835;28;55977;-77
2021/09/21 06:15:01;;;;;;;;;42.33;32.33;;;;;14.84;64.72;102446.63;5009665;28;49250;-76
2021/09/21 06:17:29;;;;;;;;;38.33;34.33;;;;;14.90;64.55;102446.72;5012835;28;45754;-77
2021/09/21 06:19:54;;;;;;;;;31.33;29.33;;;;;14.97;64.23;102453.03;5011070;28;45258;-77
2021/09/21 06:22:20;;;;;;;;;35.00;30.33;;;;;15.01;64.44;102454.91;5011236;28;45603;-77
2021/09/21 06:24:45;;;;;;;;;37.00;31.00;;;;;15.07;64.20;102455.91;5005342;28;54723;-77
2021/09/21 06:27:10;;;;;;;;;35.67;32.67;;;;;15.11;64.32;102454.22;5010484;28;45712;-77
2021/09/21 06:29:36;;;;;;;;;30.00;27.33;;;;;15.14;64.30;102456.94;5012886;28;54541;-77
2021/09/21 06:32:01;;;;;;;;;35.00;27.67;;;;;15.16;64.11;102465.84;5015154;28;45345;-77
2021/09/21 06:34:27;;;;;;;;;34.67;31.00;;;;;15.24;63.66;102477.53;5016456;28;45283;-76
2021/09/21 06:36:53;;;;;;;;;33.67;30.00;;;;;15.28;63.67;102481.13;5019839;28;47464;-77
2021/09/21 06:39:20;;;;;;;;;34.33;30.00;;;;;15.30;63.36;102484.72;5014519;28;46131;-76
2021/09/21 06:41:45;;;;;;;;;30.00;26.00;;;;;15.36;62.95;102485.72;5014683;28;45575;-77
2021/09/21 06:44:11;;;;;;;;;34.67;27.33;;;;;15.36;62.56;102487.50;5014637;28;45442;-76
2021/09/21 06:46:36;;;;;;;;;30.67;28.00;;;;;15.42;63.16;102490.25;5013152;28;57646;-77
2021/09/21 06:49:01;;;;;;;;;26.67;25.67;;;;;15.44;62.26;102491.16;5015903;28;62293;-76
2021/09/21 06:51:27;;;;;;;;;30.33;26.67;;;;;15.46;62.17;102500.09;5008583;28;53460;-77
2021/09/21 06:53:52;;;;;;;;;36.67;30.00;;;;;15.49;62.62;102500.13;5013954;28;45585;-77
2021/09/21 06:56:18;;;;;;;;;29.33;26.00;;;;;15.52;62.02;102508.19;5014892;28;46472;-77
2021/09/21 06:58:43;;;;;;;;;26.00;24.67;;;;;15.54;62.50;102509.09;5009625;28;48036;-75
2021/09/21 07:01:09;;;;;;;;;30.33;23.33;;;;;15.57;62.52;102514.50;5014596;28;45441;-75
2021/09/21 07:03:34;;;;;;;;;23.67;20.00;;;;;15.60;61.60;102513.63;5013552;28;45501;-74
2021/09/21 07:06:04;;;;;;;;;25.33;22.00;;;;;15.60;61.22;102518.97;5015259;28;56883;-74
2021/09/21 07:08:29;;;;;;;;;28.67;24.67;;;;;15.60;61.68;102517.19;5023958;28;45725;-75
2021/09/21 07:10:55;;;;;;;;;26.33;23.33;;;;;15.62;61.46;102518.13;5017924;28;45417;-75
2021/09/21 07:13:20;;;;;;;;;23.00;20.00;;;;;15.64;61.18;102521.75;5018031;28;45467;-75
2021/09/21 07:15:45;;;;;;;;;26.33;22.00;;;;;15.65;60.67;102531.50;5020928;28;55169;-75
2021/09/21 07:18:11;;;;;;;;;21.33;19.00;;;;;15.66;60.94;102522.69;5021038;28;58586;-74
2021/09/21 07:20:36;;;;;;;;;27.33;22.00;;;;;15.72;60.72;102532.53;5017847;28;45276;-75
2021/09/21 07:23:02;;;;;;;;;22.00;19.00;;;;;15.74;60.85;102530.78;5017058;28;45447;-75
2021/09/21 07:25:28;;;;;;;;;18.00;18.00;;;;;15.78;60.57;102535.31;5025177;28;60764;-74
2021/09/21 07:27:53;;;;;;;;;25.33;18.00;;;;;15.81;60.54;102537.09;5141749;22;46093;-75
2021/09/21 07:30:19;;;;;;;;;20.67;18.67;;;;;15.82;60.69;102533.56;5038175;28;45487;-75
2021/09/21 07:32:44;;;;;;;;;22.67;18.67;;;;;15.85;60.56;102542.50;5031309;28;45283;-74
2021/09/21 07:35:10;;;;;;;;;19.67;17.33;;;;;15.81;59.93;102540.66;5033923;28;46391;-75
2021/09/21 07:37:35;;;;;;;;;19.00;16.00;;;;;15.91;59.91;102552.38;5035321;28;45384;-75
2021/09/21 07:40:01;;;;;;;;;20.33;18.67;;;;;15.90;59.38;102550.59;5035517;28;45387;-76
2021/09/21 07:42:26;;;;;;;;;18.33;16.00;;;;;15.93;59.33;102563.97;5029598;28;45489;-75
2021/09/21 07:44:53;;;;;;;;;17.67;16.00;;;;;15.96;56.88;102564.91;5023450;28;57375;-76
2021/09/21 07:47:18;;;;;;;;;20.33;15.67;;;;;15.97;58.86;102556.03;5032271;28;45476;-77
2021/09/21 07:49:45;;;;;;;;;16.00;14.00;;;;;16.00;58.84;102560.53;5031623;28;45437;-76
2021/09/21 07:52:10;;;;;;;;;14.67;12.33;;;;;16.01;58.62;102551.66;5036001;28;45678;-75
2021/09/21 07:54:36;;;;;;;;;16.67;14.00;;;;;16.07;58.14;102554.41;5034841;28;46246;-75
2021/09/21 07:57:02;;;;;;;;;17.00;16.00;;;;;16.10;57.60;102562.47;5036190;28;45311;-80
2021/09/21 07:59:28;;;;;;;;;15.67;12.67;;;;;16.11;58.04;102566.91;5021748;28;45649;-82
2021/09/21 08:01:53;;;;;;;;;12.33;9.00;;;;;16.13;57.80;102562.50;5036811;28;45526;-79
2021/09/21 08:04:18;;;;;;;;;13.33;12.00;;;;;16.16;57.63;102567.00;5020173;28;48175;-79
2021/09/21 08:07:06;;;;;;;;;12.33;9.67;;;;;16.18;57.42;102563.47;5028931;28;58327;-77
2021/09/21 08:09:31;;;;;;;;;12.67;11.67;;;;;16.19;57.97;102557.28;5029549;28;45422;-78
2021/09/21 08:11:56;;;;;;;;;16.33;12.67;;;;;16.27;57.30;102569.81;5029888;28;45708;-82
2021/09/21 08:14:22;;;;;;;;;13.00;9.00;;;;;16.28;57.06;102574.28;5017798;28;45633;-82
2021/09/21 08:16:47;;;;;;;;;10.67;10.00;;;;;16.31;56.90;102566.34;5014329;28;58223;-78
2021/09/21 08:19:12;;;;;;;;;15.00;12.33;;;;;16.30;56.82;102557.44;5035499;28;57064;-82
2021/09/21 08:21:38;;;;;;;;;15.00;11.00;;;;;16.34;56.46;102569.94;5033806;28;54030;-80
2021/09/21 08:24:05;;;;;;;;;13.33;11.67;;;;;16.31;56.16;102553.00;5034966;28;59062;-77
2021/09/21 08:26:30;;;;;;;;;10.33;10.00;;;;;16.38;56.76;102570.88;5038427;28;45520;-80
2021/09/21 08:28:56;;;;;;;;;11.67;9.00;;;;;16.42;56.78;102578.06;5030095;28;51232;-80
2021/09/21 08:31:21;;;;;;;;;11.00;10.00;;;;;16.42;56.08;102572.72;5031248;28;56611;-78
2021/09/21 08:33:47;;;;;;;;;9.67;9.67;;;;;16.50;56.18;102585.28;5035135;28;46379;-77
2021/09/21 08:36:12;;;;;;;;;10.00;9.00;;;;;16.53;55.65;102575.56;5031000;28;45464;-80
2021/09/21 08:38:37;;;;;;;;;10.00;9.00;;;;;16.56;55.41;102587.13;5031953;28;46067;-77
2021/09/21 08:41:03;;;;;;;;;9.00;9.00;;;;;16.59;56.14;102586.31;5034411;28;47268;-80
2021/09/21 08:43:28;;;;;;;;;9.33;9.33;;;;;16.59;55.32;102581.84;5035759;28;47506;-78
2021/09/21 08:45:54;;;;;;;;;11.00;8.67;;;;;16.66;55.25;102586.38;5035018;28;57657;-78
2021/09/21 08:48:19;;;;;;;;;9.67;8.00;;;;;16.69;54.75;102588.22;5031688;28;54280;-79
2021/09/21 08:50:45;;;;;;;;;9.33;9.33;;;;;16.72;55.02;102588.28;4996525;28;45475;-78
2021/09/21 08:53:10;;;;;;;;;7.67;7.67;;;;;16.74;54.59;102589.22;5032324;28;53582;-82
2021/09/21 08:55:35;;;;;;;;;15.67;10.00;;;;;16.77;55.05;102595.47;5033498;28;59688;-77
2021/09/21 08:58:01;;;;;;;;;11.00;8.33;;;;;16.82;54.62;102602.66;5034644;28;51865;-79
2021/09/21 09:00:28;;;;;;;;;9.00;7.67;;;;;16.82;53.34;102592.88;4999838;28;45570;-77
2021/09/21 09:03:02;;;;;;;;;8.67;8.67;;;;;16.87;54.70;102598.28;5030207;28;46567;-80
2021/09/21 09:05:43;;;;;;;;;7.00;7.00;;;;;16.90;54.03;102593.00;5026216;28;45493;-78
2021/09/21 09:08:08;;;;;;;;;7.00;6.67;;;;;16.95;54.54;102592.16;5026345;28;45453;-76
2021/09/21 09:10:34;;;;;;;;;10.67;7.00;;;;;16.99;53.76;102594.00;5034560;28;45456;-79
2021/09/21 09:12:59;;;;;;;;;8.00;8.00;;;;;17.04;54.28;102591.38;5027554;28;58377;-77
2021/09/21 09:15:26;;;;;;;;;7.00;7.00;;;;;17.08;52.06;102600.31;5028779;28;55357;-77
2021/09/21 09:17:56;;;;;;;;;10.33;8.00;;;;;17.10;53.65;102601.22;5033006;28;45468;-75
2021/09/21 09:20:38;;;;;;;;;10.00;7.33;;;;;17.11;52.74;102595.03;5033685;28;45476;-77
2021/09/21 09:23:08;;;;;;;;;7.00;7.00;;;;;17.18;52.92;102599.56;5007334;28;47183;-78
2021/09/21 09:25:46;;;;;;;;;10.00;8.00;;;;;17.19;52.83;102596.00;5034653;28;45483;-76
2021/09/21 09:28:14;;;;;;;;;9.33;8.00;;;;;17.23;53.29;102596.06;5034880;28;45605;-78
2021/09/21 09:30:39;;;;;;;;;10.00;7.00;;;;;17.28;53.26;102597.00;5031292;28;45465;-79
2021/09/21 09:33:06;;;;;;;;;11.00;10.00;;;;;17.29;52.94;102604.13;4997326;28;46479;-79
2021/09/21 09:35:32;;;;;;;;;14.33;10.00;;;;;17.34;52.74;102614.88;5029351;28;45520;-82
2021/09/21 09:38:06;;;;;;;;;10.00;10.00;;;;;17.39;53.09;102605.16;5024221;28;45433;-81
2021/09/21 09:40:31;;;;;;;;;8.33;8.33;;;;;17.38;52.58;102597.13;5011674;28;46338;-81
2021/09/21 09:42:57;;;;;;;;;15.33;10.00;;;;;17.44;53.45;102599.88;5010526;28;46841;-82
2021/09/21 09:45:46;;;;;;;;;12.00;10.67;;;;;17.52;52.52;102608.84;5032163;28;55261;-81
2021/09/21 09:48:14;;;;;;;;;12.33;11.00;;;;;17.57;52.43;102600.88;5034556;28;45495;-81
2021/09/21 09:50:42;;;;;;;;;11.33;10.00;;;;;17.62;52.40;102604.50;5032833;28;45572;-83
2021/09/21 09:53:24;;;;;;;;;13.33;12.00;;;;;17.68;52.44;102602.75;5009336;28;47258;-78
2021/09/21 09:55:51;;;;;;;;;13.00;11.00;;;;;17.72;52.61;102612.66;5026603;28;45433;-79
2021/09/21 09:58:17;;;;;;;;;13.33;12.00;;;;;17.77;52.48;102607.34;5034877;28;45475;-79
2021/09/21 10:00:42;;;;;;;;;15.67;12.67;;;;;17.84;51.49;102606.53;5028415;28;45430;-79
2021/09/21 10:03:08;;;;;;;;;16.33;14.00;;;;;17.88;52.17;102597.66;5013985;28;47548;-77
2021/09/21 10:05:36;;;;;;;;;16.00;12.67;;;;;17.94;52.13;102595.03;5030742;28;45315;-77
2021/09/21 10:08:02;;;;;;;;;16.00;14.00;;;;;17.99;52.25;102595.97;5029529;28;45558;-77
2021/09/21 10:10:28;;;;;;;;;12.67;12.67;;;;;17.98;52.27;102587.94;5011790;28;45480;-78
2021/09/21 10:12:54;;;;;;;;;14.00;12.67;;;;;18.06;50.88;102597.84;5031606;28;47334;-79
2021/09/21 10:15:20;;;;;;;;;15.67;15.33;;;;;18.12;51.87;102605.00;5030438;28;45375;-76
2021/09/21 10:17:53;;;;;;;;;15.67;14.00;;;;;18.16;51.74;102612.16;5023965;28;45595;-79
2021/09/21 10:20:20;;;;;;;;;13.67;13.67;;;;;18.18;51.99;102597.03;5033456;28;45503;-77
2021/09/21 10:22:53;;;;;;;;;16.33;15.00;;;;;18.19;52.05;102593.47;5033584;28;45467;-79
2021/09/21 10:25:28;;;;;;;;;18.00;16.67;;;;;18.24;52.10;102598.84;5004324;28;45314;-77
2021/09/21 10:27:53;;;;;;;;;16.00;14.00;;;;;18.26;51.85;102597.06;5029075;28;45578;-78
2021/09/21 10:30:21;;;;;;;;;19.67;14.00;;;;;18.32;52.32;102606.06;5019396;28;46908;-80
2021/09/21 10:32:47;;;;;;;;;17.33;15.67;;;;;18.36;51.61;102600.72;5028882;28;46921;-77
2021/09/21 10:35:18;;;;;;;;;16.00;16.00;;;;;18.35;51.47;102591.81;5034953;28;45426;-78
2021/09/21 10:37:43;;;;;;;;;18.00;18.00;;;;;18.42;51.72;102606.09;5027180;28;45408;-77
2021/09/21 10:40:09;;;;;;;;;17.67;16.00;;;;;18.46;51.88;102599.91;5005850;28;56011;-81
2021/09/21 10:42:35;;;;;;;;;18.33;16.33;;;;;18.48;51.50;102592.75;5030670;28;46436;-77
2021/09/21 10:45:02;;;;;;;;;17.00;14.67;;;;;18.52;51.62;102597.25;5038860;28;45359;-79
2021/09/21 10:47:45;;;;;;;;;23.33;19.67;;;;;18.57;51.12;102599.06;5033996;28;45619;-79
2021/09/21 10:50:15;;;;;;;;;20.33;17.00;;;;;18.62;50.92;102588.41;5037291;28;57028;-77
2021/09/21 10:52:41;;;;;;;;;20.67;19.00;;;;;18.67;50.46;102593.78;5035160;28;46398;-79
2021/09/21 10:55:12;;;;;;;;;24.33;21.00;;;;;18.73;51.47;102599.19;5036251;28;58330;-79
2021/09/21 10:57:45;;;;;;;;;19.67;16.00;;;;;18.81;51.24;102593.00;5037660;28;45456;-80
2021/09/21 11:00:12;;;;;;;;;18.00;15.67;;;;;18.90;51.26;102597.50;5036679;28;45329;-77
2021/09/21 11:02:58;;;;;;;;;18.33;17.67;;;;;19.05;51.90;102596.69;5036951;28;46462;-81
2021/09/21 11:05:27;;;;;;;;;19.67;17.00;;;;;19.16;50.74;102578.88;5033473;28;45676;-78
2021/09/21 11:07:55;;;;;;;;;19.00;18.67;;;;;19.24;51.15;102594.97;5031427;28;45465;-79
2021/09/21 11:10:21;;;;;;;;;18.00;17.67;;;;;19.26;50.91;102580.69;5036102;28;45431;-82
2021/09/21 11:12:47;;;;;;;;;17.00;17.00;;;;;19.32;50.30;102579.81;5030337;28;46597;-80
2021/09/21 11:15:13;;;;;;;;;24.67;18.00;;;;;19.33;50.31;102578.91;5036193;28;45415;-80